createdAt,value
2018-03-03T00:00:06.034Z,-5.20
2018-03-03T00:01:08.593Z,-5.20
2018-03-03T00:02:11.270Z,-5.20
2018-03-03T00:03:13.861Z,-5.10
2018-03-03T00:04:17.191Z,-5.10
2018-03-03T00:05:19.775Z,-5.10
2018-03-03T00:06:22.337Z,-5.00
2018-03-03T00:07:24.942Z,-5.00
2018-03-03T00:08:27.514Z,-5.10
2018-03-03T00:09:30.840Z,-5.30
2018-03-03T00:10:33.389Z,-5.30
2018-03-03T00:11:35.938Z,-5.30
2018-03-03T00:12:39.287Z,-5.30
2018-03-03T00:13:41.860Z,-5.30
2018-03-03T00:14:44.465Z,-5.20
2018-03-03T00:15:47.789Z,-5.40
2018-03-03T00:16:50.363Z,-5.40
2018-03-03T00:17:52.953Z,-5.40
2018-03-03T00:18:55.503Z,-5.40
2018-03-03T00:19:58.064Z,-5.50
2018-03-03T00:21:00.715Z,-5.60
2018-03-03T00:22:03.385Z,-5.70
2018-03-03T00:23:05.977Z,-5.80
2018-03-03T00:24:08.594Z,-5.70
2018-03-03T00:25:11.923Z,-5.70
2018-03-03T00:26:14.478Z,-5.70
2018-03-03T00:27:17.043Z,-5.70
2018-03-03T00:28:19.599Z,-5.70
2018-03-03T00:29:22.186Z,-5.80
2018-03-03T00:30:24.739Z,-5.70
2018-03-03T00:31:27.317Z,-5.70
2018-03-03T00:32:29.907Z,-5.60
2018-03-03T00:33:32.474Z,-5.60
2018-03-03T00:34:35.062Z,-5.50
2018-03-03T00:35:37.630Z,-5.40
2018-03-03T00:36:40.194Z,-5.40
2018-03-03T00:37:42.777Z,-5.40
2018-03-03T00:38:46.104Z,-5.40
2018-03-03T00:39:48.659Z,-5.40
2018-03-03T00:40:51.231Z,-5.40
2018-03-03T00:41:53.785Z,-5.40
2018-03-03T00:42:56.370Z,-5.40
2018-03-03T00:43:58.930Z,-5.40
2018-03-03T00:45:01.492Z,-5.40
2018-03-03T00:46:04.041Z,-5.30
2018-03-03T00:47:06.594Z,-5.30
2018-03-03T00:48:09.956Z,-5.30
2018-03-03T00:49:12.512Z,-5.30
2018-03-03T00:50:15.058Z,-5.40
2018-03-03T00:51:17.631Z,-5.40
2018-03-03T00:52:20.194Z,-5.40
2018-03-03T00:53:22.776Z,-5.40
2018-03-03T00:54:25.330Z,-5.40
2018-03-03T00:55:27.900Z,-5.40
2018-03-03T00:56:30.511Z,-5.40
2018-03-03T00:57:33.871Z,-5.60
2018-03-03T00:58:36.432Z,-5.60
2018-03-03T00:59:39.019Z,-5.60
2018-03-03T01:00:42.346Z,-5.70
2018-03-03T01:01:44.900Z,-5.70
2018-03-03T01:02:47.517Z,-5.70
2018-03-03T01:03:50.065Z,-5.70
2018-03-03T01:04:52.677Z,-5.60
2018-03-03T01:05:55.998Z,-5.60
2018-03-03T01:06:58.562Z,-5.70
2018-03-03T01:08:01.120Z,-5.60
2018-03-03T01:09:03.677Z,-5.60
2018-03-03T01:10:07.037Z,-5.70
2018-03-03T01:11:09.594Z,-5.70
2018-03-03T01:12:12.142Z,-5.80
2018-03-03T01:13:14.743Z,-5.90
2018-03-03T01:14:17.293Z,-5.90
2018-03-03T01:15:19.841Z,-6.10
2018-03-03T01:16:22.390Z,-6.20
2018-03-03T01:17:24.974Z,-6.20
2018-03-03T01:18:27.537Z,-6.30
2018-03-03T01:19:30.132Z,-6.30
2018-03-03T01:20:32.691Z,-6.20
2018-03-03T01:21:35.290Z,-6.20
2018-03-03T01:22:38.606Z,-6.20
2018-03-03T01:23:41.157Z,-6.20
2018-03-03T01:24:43.741Z,-6.20
2018-03-03T01:25:46.301Z,-6.10
2018-03-03T01:26:48.858Z,-6.10
2018-03-03T01:27:51.413Z,-6.30
2018-03-03T01:28:53.991Z,-6.30
2018-03-03T01:29:56.574Z,-6.40
2018-03-03T01:30:59.268Z,-6.40
2018-03-03T01:32:01.823Z,-6.40
2018-03-03T01:33:04.382Z,-6.40
2018-03-03T01:34:06.937Z,-6.50
2018-03-03T01:35:09.521Z,-6.40
2018-03-03T01:36:12.075Z,-6.40
2018-03-03T01:37:14.625Z,-6.40
2018-03-03T01:38:17.195Z,-6.40
2018-03-03T01:39:19.797Z,-6.40
2018-03-03T01:40:22.378Z,-6.50
2018-03-03T01:41:24.931Z,-6.50
2018-03-03T01:42:27.488Z,-6.50
2018-03-03T01:43:30.050Z,-6.50
2018-03-03T01:44:32.640Z,-6.50
2018-03-03T01:45:35.194Z,-6.50
2018-03-03T01:46:37.747Z,-6.50
2018-03-03T01:47:40.297Z,-6.50
2018-03-03T01:48:42.854Z,-6.70
2018-03-03T01:49:46.206Z,-6.70
2018-03-03T01:50:48.806Z,-6.70
2018-03-03T01:51:51.372Z,-6.70
2018-03-03T01:52:54.694Z,-6.60
2018-03-03T01:53:57.250Z,-6.70
2018-03-03T01:54:59.807Z,-6.70
2018-03-03T01:56:02.388Z,-6.70
2018-03-03T01:57:04.934Z,-6.60
2018-03-03T01:58:07.522Z,-6.60
2018-03-03T01:59:10.071Z,-6.60
2018-03-03T02:00:12.626Z,-6.50
2018-03-03T02:01:15.186Z,-6.50
2018-03-03T02:02:18.506Z,-6.50
2018-03-03T02:03:21.094Z,-6.60
2018-03-03T02:04:23.651Z,-6.70
2018-03-03T02:05:26.212Z,-6.70
2018-03-03T02:06:28.802Z,-6.70
2018-03-03T02:07:31.354Z,-6.80
2018-03-03T02:08:33.910Z,-6.80
2018-03-03T02:09:36.458Z,-6.70
2018-03-03T02:10:39.017Z,-6.60
2018-03-03T02:11:41.609Z,-6.60
2018-03-03T02:12:44.169Z,-6.60
2018-03-03T02:13:46.727Z,-6.50
2018-03-03T02:14:49.278Z,-6.60
2018-03-03T02:15:51.839Z,-6.60
2018-03-03T02:16:55.269Z,-6.50
2018-03-03T02:17:57.832Z,-6.60
2018-03-03T02:19:00.418Z,-6.60
2018-03-03T02:20:03.007Z,-6.60
2018-03-03T02:21:05.566Z,-6.60
2018-03-03T02:22:08.113Z,-6.60
2018-03-03T02:23:10.665Z,-6.50
2018-03-03T02:24:13.218Z,-6.50
2018-03-03T02:25:15.805Z,-6.50
2018-03-03T02:26:18.398Z,-6.50
2018-03-03T02:27:20.950Z,-6.50
2018-03-03T02:28:23.510Z,-6.60
2018-03-03T02:29:26.068Z,-6.70
2018-03-03T02:30:28.625Z,-6.80
2018-03-03T02:31:31.221Z,-6.90
2018-03-03T02:32:33.788Z,-7.00
2018-03-03T02:33:36.394Z,-7.00
2018-03-03T02:34:39.715Z,-7.10
2018-03-03T02:35:42.286Z,-7.20
2018-03-03T02:36:44.885Z,-7.10
2018-03-03T02:37:47.442Z,-7.20
2018-03-03T02:38:50.039Z,-7.10
2018-03-03T02:39:53.361Z,-7.00
2018-03-03T02:40:55.914Z,-7.00
2018-03-03T02:41:58.507Z,-6.90
2018-03-03T02:43:01.060Z,-6.90
2018-03-03T02:44:03.647Z,-6.80
2018-03-03T02:45:06.198Z,-6.80
2018-03-03T02:46:08.763Z,-6.70
2018-03-03T02:47:11.317Z,-6.70
2018-03-03T02:48:13.874Z,-6.60
2018-03-03T02:49:16.462Z,-6.60
2018-03-03T02:50:19.020Z,-6.80
2018-03-03T02:51:21.609Z,-6.70
2018-03-03T02:52:24.167Z,-6.70
2018-03-03T02:53:26.722Z,-6.70
2018-03-03T02:54:29.279Z,-6.70
2018-03-03T02:55:31.829Z,-6.90
2018-03-03T02:56:35.183Z,-6.90
2018-03-03T02:57:37.906Z,-6.90
2018-03-03T02:58:40.456Z,-7.00
2018-03-03T02:59:43.775Z,-6.80
2018-03-03T03:00:46.330Z,-6.90
2018-03-03T03:01:48.910Z,-6.80
2018-03-03T03:02:51.468Z,-6.90
2018-03-03T03:03:54.023Z,-6.90
2018-03-03T03:04:56.585Z,-7.00
2018-03-03T03:05:59.146Z,-7.00
2018-03-03T03:07:02.537Z,-7.00
2018-03-03T03:08:05.089Z,-7.00
2018-03-03T03:09:08.411Z,-6.90
2018-03-03T03:10:10.967Z,-6.90
2018-03-03T03:11:13.524Z,-6.80
2018-03-03T03:12:16.134Z,-6.80
2018-03-03T03:13:19.466Z,-7.00
2018-03-03T03:14:22.029Z,-7.00
2018-03-03T03:15:25.350Z,-7.00
2018-03-03T03:16:27.906Z,-7.00
2018-03-03T03:17:30.494Z,-7.00
2018-03-03T03:18:33.052Z,-7.00
2018-03-03T03:19:35.607Z,-7.00
2018-03-03T03:20:38.157Z,-7.00
2018-03-03T03:21:40.710Z,-7.00
2018-03-03T03:22:44.086Z,-7.00
2018-03-03T03:23:46.638Z,-7.00
2018-03-03T03:24:49.198Z,-7.00
2018-03-03T03:25:51.764Z,-6.90
2018-03-03T03:26:54.324Z,-6.90
2018-03-03T03:27:56.917Z,-6.90
2018-03-03T03:29:00.255Z,-6.90
2018-03-03T03:30:02.816Z,-6.90
2018-03-03T03:31:05.372Z,-7.00
2018-03-03T03:32:07.927Z,-7.10
2018-03-03T03:33:10.519Z,-7.20
2018-03-03T03:34:13.081Z,-7.20
2018-03-03T03:35:15.640Z,-7.20
2018-03-03T03:36:18.193Z,-7.20
2018-03-03T03:37:21.514Z,-7.20
2018-03-03T03:38:24.103Z,-7.30
2018-03-03T03:39:26.666Z,-7.30
2018-03-03T03:40:29.217Z,-7.20
2018-03-03T03:41:31.771Z,-7.10
2018-03-03T03:42:34.333Z,-7.10
2018-03-03T03:43:36.923Z,-7.10
2018-03-03T03:44:39.478Z,-7.10
2018-03-03T03:45:42.053Z,-7.10
2018-03-03T03:46:44.610Z,-7.00
2018-03-03T03:47:47.191Z,-7.10
2018-03-03T03:48:49.775Z,-7.20
2018-03-03T03:49:52.337Z,-7.20
2018-03-03T03:50:54.886Z,-7.10
2018-03-03T03:51:57.444Z,-7.10
2018-03-03T03:52:59.997Z,-7.00
2018-03-03T03:54:02.581Z,-7.00
2018-03-03T03:55:05.179Z,-7.00
2018-03-03T03:56:07.734Z,-7.00
2018-03-03T03:57:10.286Z,-7.10
2018-03-03T03:58:12.851Z,-7.30
2018-03-03T03:59:15.401Z,-7.40
2018-03-03T04:00:17.984Z,-7.40
2018-03-03T04:01:20.566Z,-7.40
2018-03-03T04:02:23.122Z,-7.40
2018-03-03T04:03:25.680Z,-7.40
2018-03-03T04:04:28.239Z,-7.40
2018-03-03T04:05:30.799Z,-7.40
2018-03-03T04:06:33.392Z,-7.40
2018-03-03T04:07:35.965Z,-7.40
2018-03-03T04:08:38.521Z,-7.50
2018-03-03T04:09:41.106Z,-7.50
2018-03-03T04:10:43.736Z,-7.50
2018-03-03T04:11:46.323Z,-7.40
2018-03-03T04:12:48.910Z,-7.40
2018-03-03T04:13:51.468Z,-7.30
2018-03-03T04:14:54.014Z,-7.30
2018-03-03T04:15:56.609Z,-7.30
2018-03-03T04:16:59.170Z,-7.40
2018-03-03T04:18:01.727Z,-7.40
2018-03-03T04:19:04.282Z,-7.30
2018-03-03T04:20:06.873Z,-7.40
2018-03-03T04:21:09.444Z,-7.40
2018-03-03T04:22:12.003Z,-7.40
2018-03-03T04:23:14.557Z,-7.30
2018-03-03T04:24:17.105Z,-7.40
2018-03-03T04:25:19.685Z,-7.50
2018-03-03T04:26:22.238Z,-7.50
2018-03-03T04:27:24.803Z,-7.40
2018-03-03T04:28:27.354Z,-7.30
2018-03-03T04:29:29.942Z,-7.40
2018-03-03T04:30:32.502Z,-7.40
2018-03-03T04:31:35.057Z,-7.40
2018-03-03T04:32:37.634Z,-7.30
2018-03-03T04:33:40.267Z,-7.30
2018-03-03T04:34:42.849Z,-7.20
2018-03-03T04:35:46.170Z,-7.10
2018-03-03T04:36:48.732Z,-7.20
2018-03-03T04:37:51.294Z,-7.10
2018-03-03T04:38:53.846Z,-7.00
2018-03-03T04:39:56.485Z,-7.00
2018-03-03T04:40:59.040Z,-7.00
2018-03-03T04:42:01.603Z,-7.00
2018-03-03T04:43:04.168Z,-7.20
2018-03-03T04:45:15.843Z,-7.00
2018-03-03T04:46:18.390Z,-7.00
2018-03-03T04:47:20.946Z,-7.00
2018-03-03T04:48:23.508Z,-7.10
2018-03-03T04:49:26.065Z,-7.10
2018-03-03T04:50:28.658Z,-7.10
2018-03-03T04:51:31.259Z,-7.20
2018-03-03T04:52:33.815Z,-7.00
2018-03-03T04:53:36.371Z,-7.20
2018-03-03T04:54:38.935Z,-7.20
2018-03-03T04:55:42.290Z,-7.10
2018-03-03T04:56:45.176Z,-7.10
2018-03-03T04:57:47.771Z,-7.10
2018-03-03T04:58:54.306Z,-7.10
2018-03-03T05:00:12.563Z,-7.20
2018-03-03T05:01:15.119Z,-7.30
2018-03-03T05:02:23.236Z,-7.30
2018-03-03T05:03:28.635Z,-7.30
2018-03-03T05:04:36.801Z,-7.40
2018-03-03T05:07:39.459Z,-7.30
2018-03-03T05:08:42.028Z,-7.30
2018-03-03T05:09:44.548Z,-7.20
2018-03-03T05:10:48.724Z,-7.20
2018-03-03T05:11:52.030Z,-7.30
2018-03-03T05:14:34.677Z,-7.30
2018-03-03T05:15:52.090Z,-7.30
2018-03-03T05:18:44.130Z,-7.10
2018-03-03T05:19:52.446Z,-7.00
2018-03-03T05:21:00.663Z,-6.90
2018-03-03T05:22:09.738Z,-6.80
2018-03-03T05:23:18.125Z,-6.80
2018-03-03T05:24:26.243Z,-6.70
2018-03-03T05:25:34.489Z,-6.70
2018-03-03T05:26:43.385Z,-6.70
2018-03-03T05:27:51.522Z,-6.70
2018-03-03T05:28:59.719Z,-6.70
2018-03-03T05:30:07.923Z,-6.70
2018-03-03T05:31:16.089Z,-6.80
2018-03-03T05:34:06.936Z,-6.80
2018-03-03T05:35:15.142Z,-6.80
2018-03-03T05:36:33.367Z,-6.80
2018-03-03T05:37:41.454Z,-6.80
2018-03-03T05:40:27.538Z,-6.90
2018-03-03T05:41:35.788Z,-6.90
2018-03-03T05:42:44.033Z,-7.00
2018-03-03T05:43:47.365Z,-7.00
2018-03-03T05:44:55.541Z,-7.10
2018-03-03T05:46:03.816Z,-7.10
2018-03-03T05:48:59.342Z,-7.10
2018-03-03T05:50:20.562Z,-7.10
2018-03-03T05:51:40.756Z,-7.10
2018-03-03T05:52:59.023Z,-7.00
2018-03-03T05:54:07.212Z,-7.00
2018-03-03T05:55:15.406Z,-7.00
2018-03-03T05:56:23.700Z,-7.00
2018-03-03T05:57:31.804Z,-7.00
2018-03-03T05:58:40.192Z,-6.90
2018-03-03T05:59:48.384Z,-6.90
2018-03-03T06:00:51.856Z,-6.80
2018-03-03T06:01:59.838Z,-6.80
2018-03-03T06:03:07.844Z,-6.80
2018-03-03T06:04:15.950Z,-6.70
2018-03-03T06:05:24.231Z,-6.70
2018-03-03T06:06:30.194Z,-6.70
2018-03-03T06:07:41.465Z,-6.60
2018-03-03T06:08:45.813Z,-6.60
2018-03-03T06:09:51.466Z,-6.50
2018-03-03T06:10:53.999Z,-6.60
2018-03-03T06:11:56.538Z,-6.60
2018-03-03T06:12:59.058Z,-6.60
2018-03-03T06:14:01.615Z,-6.60
2018-03-03T06:15:04.159Z,-6.50
2018-03-03T06:16:06.695Z,-6.50
2018-03-03T06:17:09.219Z,-6.50
2018-03-03T06:18:11.797Z,-6.50
2018-03-03T06:19:14.325Z,-6.50
2018-03-03T06:20:16.845Z,-6.50
2018-03-03T06:21:20.133Z,-6.40
2018-03-03T06:22:23.422Z,-6.30
2018-03-03T06:23:25.981Z,-6.30
2018-03-03T06:24:29.268Z,-6.40
2018-03-03T06:25:32.592Z,-6.40
2018-03-03T06:26:35.113Z,-6.40
2018-03-03T06:27:38.408Z,-6.30
2018-03-03T06:28:40.932Z,-6.30
2018-03-03T06:29:43.458Z,-6.30
2018-03-03T06:30:46.019Z,-6.30
2018-03-03T06:31:48.542Z,-6.30
2018-03-03T06:32:51.092Z,-6.40
2018-03-03T06:33:53.677Z,-6.40
2018-03-03T06:34:56.210Z,-6.40
2018-03-03T06:35:58.732Z,-6.40
2018-03-03T06:37:01.259Z,-6.40
2018-03-03T06:38:03.829Z,-6.40
2018-03-03T06:39:06.384Z,-6.30
2018-03-03T06:40:08.920Z,-6.30
2018-03-03T06:41:11.445Z,-6.30
2018-03-03T06:42:13.999Z,-6.30
2018-03-03T06:43:16.563Z,-6.30
2018-03-03T06:44:19.129Z,-6.30
2018-03-03T06:45:21.664Z,-6.30
2018-03-03T06:46:24.189Z,-6.30
2018-03-03T06:47:27.476Z,-6.30
2018-03-03T06:48:30.774Z,-6.30
2018-03-03T06:49:33.337Z,-6.30
2018-03-03T06:50:35.889Z,-6.30
2018-03-03T06:51:39.186Z,-6.30
2018-03-03T06:52:41.710Z,-6.30
2018-03-03T06:55:23.477Z,-6.20
2018-03-03T06:58:03.858Z,-6.10
2018-03-03T06:59:06.390Z,-6.00
2018-03-03T07:00:08.953Z,-6.00
2018-03-03T07:01:11.504Z,-6.00
2018-03-03T07:02:14.035Z,-5.90
2018-03-03T07:03:17.373Z,-5.80
2018-03-03T07:04:19.920Z,-5.90
2018-03-03T07:05:22.473Z,-5.80
2018-03-03T07:06:25.033Z,-5.80
2018-03-03T07:07:28.390Z,-5.90
2018-03-03T07:08:30.934Z,-5.90
2018-03-03T07:09:33.486Z,-5.80
2018-03-03T07:10:36.017Z,-5.80
2018-03-03T07:11:39.319Z,-5.60
2018-03-03T07:12:41.907Z,-5.60
2018-03-03T07:13:44.445Z,-5.60
2018-03-03T07:14:47.741Z,-5.40
2018-03-03T07:15:50.271Z,-5.40
2018-03-03T07:16:52.904Z,-5.20
2018-03-03T07:17:55.428Z,-5.20
2018-03-03T07:18:58.724Z,-5.20
2018-03-03T07:20:01.255Z,-5.20
2018-03-03T07:21:04.569Z,-5.10
2018-03-03T07:22:07.152Z,-5.20
2018-03-03T07:23:09.690Z,-5.10
2018-03-03T07:24:13.033Z,-5.00
2018-03-03T07:25:15.567Z,-5.00
2018-03-03T07:26:18.125Z,-5.00
2018-03-03T07:27:20.669Z,-4.90
2018-03-03T07:28:24.023Z,-5.00
2018-03-03T07:29:26.541Z,-5.00
2018-03-03T07:30:29.085Z,-5.20
2018-03-03T07:31:32.392Z,-5.40
2018-03-03T07:32:34.997Z,-5.30
2018-03-03T07:33:37.533Z,-5.30
2018-03-03T07:34:40.062Z,-5.40
2018-03-03T07:35:43.359Z,-5.30
2018-03-03T07:36:46.693Z,-5.20
2018-03-03T07:37:49.234Z,-5.20
2018-03-03T07:38:51.822Z,-5.10
2018-03-03T07:39:54.347Z,-5.10
2018-03-03T07:40:57.634Z,-5.20
2018-03-03T07:42:00.972Z,-5.20
2018-03-03T07:43:03.510Z,-5.20
2018-03-03T07:44:06.051Z,-5.20
2018-03-03T07:45:09.349Z,-5.00
2018-03-03T07:46:11.900Z,-5.10
2018-03-03T07:47:15.224Z,-5.00
2018-03-03T07:48:17.753Z,-5.00
2018-03-03T07:49:21.059Z,-5.10
2018-03-03T07:50:23.636Z,-5.10
2018-03-03T07:51:26.168Z,-5.10
2018-03-03T07:52:29.464Z,-5.10
2018-03-03T07:53:31.999Z,-5.10
2018-03-03T07:54:34.529Z,-5.10
2018-03-03T07:55:37.106Z,-5.00
2018-03-03T07:56:50.502Z,-5.00
2018-03-03T07:57:53.437Z,-4.90
2018-03-03T07:58:57.680Z,-4.90
2018-03-03T08:00:00.217Z,-4.90
2018-03-03T08:01:03.542Z,-4.60
2018-03-03T08:02:06.474Z,-4.70
2018-03-03T08:03:09.780Z,-4.70
2018-03-03T08:04:12.309Z,-4.70
2018-03-03T08:05:14.838Z,-4.80
2018-03-03T08:06:17.375Z,-4.80
2018-03-03T08:07:19.934Z,-4.70
2018-03-03T08:08:22.467Z,-4.70
2018-03-03T08:09:24.992Z,-4.90
2018-03-03T08:10:27.528Z,-4.90
2018-03-03T08:11:30.103Z,-5.00
2018-03-03T08:12:32.629Z,-4.90
2018-03-03T08:13:35.165Z,-4.80
2018-03-03T08:14:37.696Z,-4.70
2018-03-03T08:15:40.241Z,-4.60
2018-03-03T08:16:43.580Z,-4.50
2018-03-03T08:17:46.111Z,-4.50
2018-03-03T08:18:49.416Z,-4.40
2018-03-03T08:19:51.942Z,-4.40
2018-03-03T08:20:55.604Z,-4.40
2018-03-03T08:21:58.130Z,-4.40
2018-03-03T08:23:00.662Z,-4.30
2018-03-03T08:24:03.357Z,-4.30
2018-03-03T08:25:06.402Z,-4.20
2018-03-03T08:26:09.121Z,-4.00
2018-03-03T08:27:11.881Z,-3.90
2018-03-03T08:28:14.422Z,-3.90
2018-03-03T08:29:17.746Z,-3.80
2018-03-03T08:30:20.296Z,-3.80
2018-03-03T08:31:22.856Z,-3.70
2018-03-03T08:32:26.193Z,-3.60
2018-03-03T08:33:28.743Z,-3.60
2018-03-03T08:34:31.278Z,-3.50
2018-03-03T08:35:33.817Z,-3.60
2018-03-03T08:36:36.357Z,-3.70
2018-03-03T08:37:38.931Z,-3.80
2018-03-03T08:38:41.469Z,-4.00
2018-03-03T08:39:44.047Z,-4.00
2018-03-03T08:40:46.584Z,-3.80
2018-03-03T08:41:49.129Z,-4.00
2018-03-03T08:42:52.464Z,-3.70
2018-03-03T08:43:55.045Z,-3.70
2018-03-03T08:44:57.537Z,-3.60
2018-03-03T08:46:00.071Z,-3.50
2018-03-03T08:47:02.651Z,-3.60
2018-03-03T08:48:05.191Z,-3.50
2018-03-03T08:49:07.721Z,-3.50
2018-03-03T08:50:10.251Z,-3.40
2018-03-03T08:51:12.776Z,-3.70
2018-03-03T08:52:15.355Z,-3.70
2018-03-03T08:53:17.896Z,-3.60
2018-03-03T08:54:20.424Z,-3.60
2018-03-03T08:55:22.951Z,-3.60
2018-03-03T08:56:25.477Z,-3.50
2018-03-03T08:57:28.818Z,-3.50
2018-03-03T08:58:31.341Z,-3.50
2018-03-03T08:59:33.875Z,-3.50
2018-03-03T09:00:36.414Z,-3.50
2018-03-03T09:01:38.968Z,-3.60
2018-03-03T09:02:41.544Z,-3.70
2018-03-03T09:03:44.080Z,-3.60
2018-03-03T09:04:46.613Z,-3.40
2018-03-03T09:05:49.153Z,-3.40
2018-03-03T09:06:51.686Z,-3.50
2018-03-03T09:07:54.251Z,-3.50
2018-03-03T09:08:56.828Z,-3.50
2018-03-03T09:09:59.361Z,-3.40
2018-03-03T09:11:02.654Z,-3.40
2018-03-03T09:12:05.198Z,-3.40
2018-03-03T09:13:07.741Z,-3.40
2018-03-03T09:14:10.306Z,-3.40
2018-03-03T09:15:12.873Z,-3.30
2018-03-03T09:16:15.409Z,-3.30
2018-03-03T09:17:17.947Z,-3.10
2018-03-03T09:18:20.479Z,-3.00
2018-03-03T09:19:23.008Z,-3.00
2018-03-03T09:20:25.574Z,-3.00
2018-03-03T09:21:28.100Z,-3.00
2018-03-03T09:22:31.393Z,-2.90
2018-03-03T09:23:34.717Z,-2.80
2018-03-03T09:24:37.249Z,-2.80
2018-03-03T09:25:39.773Z,-2.80
2018-03-03T09:26:42.334Z,-2.80
2018-03-03T09:27:44.872Z,-2.80
2018-03-03T09:28:47.441Z,-2.70
2018-03-03T09:29:50.016Z,-2.60
2018-03-03T09:30:52.577Z,-2.60
2018-03-03T09:31:55.335Z,-2.50
2018-03-03T09:32:57.872Z,-2.40
2018-03-03T09:34:01.192Z,-2.20
2018-03-03T09:35:03.724Z,-2.20
2018-03-03T09:36:07.032Z,-2.10
2018-03-03T09:37:09.616Z,-2.10
2018-03-03T09:38:12.146Z,-2.00
2018-03-03T09:39:15.458Z,-1.90
2018-03-03T09:40:18.041Z,-1.90
2018-03-03T09:41:20.581Z,-1.80
2018-03-03T09:42:23.121Z,-1.80
2018-03-03T09:43:26.420Z,-1.80
2018-03-03T09:44:28.962Z,-1.80
2018-03-03T09:45:31.527Z,-1.90
2018-03-03T09:46:34.054Z,-1.90
2018-03-03T09:47:36.605Z,-1.90
2018-03-03T09:48:39.138Z,-1.80
2018-03-03T09:49:42.445Z,-1.90
2018-03-03T09:50:45.022Z,-1.90
2018-03-03T09:51:47.564Z,-1.90
2018-03-03T09:52:50.105Z,-1.90
2018-03-03T09:53:52.649Z,-1.90
2018-03-03T09:54:55.204Z,-1.90
2018-03-03T09:55:57.778Z,-1.80
2018-03-03T09:57:00.306Z,-1.70
2018-03-03T09:58:02.842Z,-1.70
2018-03-03T09:59:05.374Z,-2.10
2018-03-03T10:00:07.909Z,-2.30
2018-03-03T10:01:10.473Z,-2.20
2018-03-03T10:02:13.005Z,-2.20
2018-03-03T10:03:15.557Z,-2.10
2018-03-03T10:04:18.098Z,-2.00
2018-03-03T10:05:20.624Z,-1.90
2018-03-03T10:06:23.963Z,-2.50
2018-03-03T10:07:26.505Z,-2.60
2018-03-03T10:08:29.041Z,-2.70
2018-03-03T10:09:32.333Z,-2.50
2018-03-03T10:10:34.868Z,-2.50
2018-03-03T10:11:37.443Z,-2.50
2018-03-03T10:13:49.607Z,-2.40
2018-03-03T10:14:52.153Z,-2.40
2018-03-03T10:15:54.697Z,-2.30
2018-03-03T10:16:57.229Z,-2.20
2018-03-03T10:17:59.762Z,-2.20
2018-03-03T10:19:02.328Z,-2.10
2018-03-03T10:20:04.869Z,-1.90
2018-03-03T10:21:07.426Z,-1.80
2018-03-03T10:22:10.729Z,-1.70
2018-03-03T10:23:13.273Z,-1.70
2018-03-03T10:24:16.611Z,-1.60
2018-03-03T10:25:19.145Z,-1.60
2018-03-03T10:26:21.677Z,-1.70
2018-03-03T10:27:24.999Z,-1.80
2018-03-03T10:28:27.577Z,-1.80
2018-03-03T10:29:30.130Z,-1.70
2018-03-03T10:30:32.677Z,-1.80
2018-03-03T10:31:35.973Z,-1.90
2018-03-03T10:32:38.505Z,-1.90
2018-03-03T10:33:41.078Z,-1.80
2018-03-03T10:34:44.377Z,-1.60
2018-03-03T10:35:46.922Z,-1.60
2018-03-03T10:36:49.459Z,-1.50
2018-03-03T10:37:52.018Z,-1.40
2018-03-03T10:38:54.545Z,-1.40
2018-03-03T10:39:57.873Z,-1.30
2018-03-03T10:41:00.417Z,-1.40
2018-03-03T10:42:02.977Z,-1.40
2018-03-03T10:43:05.545Z,-1.40
2018-03-03T10:44:08.083Z,-1.30
2018-03-03T10:45:11.382Z,-1.10
2018-03-03T10:46:13.930Z,-1.10
2018-03-03T10:47:17.236Z,-1.10
2018-03-03T10:48:19.805Z,-1.10
2018-03-03T10:49:22.384Z,-1.00
2018-03-03T10:50:24.921Z,-1.00
2018-03-03T10:51:28.218Z,-1.20
2018-03-03T10:52:30.762Z,-1.20
2018-03-03T10:53:34.113Z,-1.30
2018-03-03T10:54:37.408Z,-1.50
2018-03-03T10:55:39.946Z,-1.60
2018-03-03T10:56:42.543Z,-1.60
2018-03-03T10:57:45.077Z,-1.60
2018-03-03T10:58:47.645Z,-1.50
2018-03-03T10:59:50.188Z,-1.50
2018-03-03T11:00:52.717Z,-1.50
2018-03-03T11:01:55.289Z,-1.40
2018-03-03T11:02:57.832Z,-1.30
2018-03-03T11:04:00.380Z,-1.40
2018-03-03T11:05:02.944Z,-1.60
2018-03-03T11:06:05.524Z,-1.70
2018-03-03T11:07:08.128Z,-1.80
2018-03-03T11:08:10.661Z,-1.70
2018-03-03T11:09:13.207Z,-1.60
2018-03-03T11:10:15.744Z,-1.50
2018-03-03T11:11:18.330Z,-1.40
2018-03-03T11:12:20.873Z,-1.50
2018-03-03T11:13:24.169Z,-1.80
2018-03-03T11:14:26.729Z,-1.80
2018-03-03T11:15:29.289Z,-1.70
2018-03-03T11:16:32.641Z,-1.50
2018-03-03T11:17:35.183Z,-1.50
2018-03-03T11:18:37.736Z,-1.40
2018-03-03T11:19:40.265Z,-1.40
2018-03-03T11:20:43.571Z,-1.20
2018-03-03T11:21:46.133Z,-1.20
2018-03-03T11:22:48.665Z,-1.10
2018-03-03T11:23:51.201Z,-1.10
2018-03-03T11:24:53.738Z,-1.10
2018-03-03T11:25:56.314Z,-1.00
2018-03-03T11:26:58.841Z,-1.00
2018-03-03T11:28:01.370Z,-1.00
2018-03-03T11:29:03.917Z,-1.00
2018-03-03T11:30:06.456Z,-1.00
2018-03-03T11:31:09.850Z,-1.00
2018-03-03T11:32:12.373Z,-1.00
2018-03-03T11:33:14.905Z,-1.00
2018-03-03T11:34:17.444Z,-1.10
2018-03-03T11:35:20.734Z,-1.00
2018-03-03T11:36:23.296Z,-1.00
2018-03-03T11:37:26.642Z,-0.90
2018-03-03T11:38:29.174Z,-0.90
2018-03-03T11:39:31.712Z,-1.00
2018-03-03T11:40:35.057Z,-1.00
2018-03-03T11:41:37.598Z,-1.00
2018-03-03T11:42:40.169Z,-1.10
2018-03-03T11:43:42.730Z,-1.10
2018-03-03T11:44:45.267Z,-1.20
2018-03-03T11:45:47.804Z,-1.30
2018-03-03T11:46:50.367Z,-1.30
2018-03-03T11:47:52.893Z,-1.30
2018-03-03T11:48:55.471Z,-1.30
2018-03-03T11:49:58.005Z,-1.40
2018-03-03T11:51:00.532Z,-1.30
2018-03-03T11:52:03.065Z,-1.10
2018-03-03T11:53:05.605Z,-1.00
2018-03-03T11:54:08.173Z,-0.90
2018-03-03T11:55:10.737Z,-1.00
2018-03-03T11:56:13.266Z,-1.20
2018-03-03T11:57:15.793Z,-1.40
2018-03-03T11:58:18.369Z,-1.40
2018-03-03T11:59:20.908Z,-1.60
2018-03-03T12:00:23.445Z,-1.60
2018-03-03T12:01:26.770Z,-1.40
2018-03-03T12:02:29.303Z,-1.40
2018-03-03T12:03:32.598Z,-1.40
2018-03-03T12:04:35.138Z,-1.40
2018-03-03T12:05:38.476Z,-1.30
2018-03-03T12:06:41.011Z,-1.30
2018-03-03T12:07:43.547Z,-1.20
2018-03-03T12:08:46.078Z,-1.20
2018-03-03T12:09:48.648Z,-1.30
2018-03-03T12:10:51.216Z,-1.30
2018-03-03T12:11:53.760Z,-1.20
2018-03-03T12:12:56.297Z,-1.10
2018-03-03T12:13:59.601Z,-1.00
2018-03-03T12:15:02.169Z,-1.00
2018-03-03T12:16:04.701Z,-0.90
2018-03-03T12:17:07.240Z,-0.80
2018-03-03T12:18:09.788Z,-0.90
2018-03-03T12:19:12.326Z,-0.90
2018-03-03T12:20:14.891Z,-1.00
2018-03-03T12:21:18.202Z,-1.10
2018-03-03T12:22:20.775Z,-1.10
2018-03-03T12:23:23.324Z,-1.20
2018-03-03T12:24:25.856Z,-1.30
2018-03-03T12:25:29.150Z,-1.20
2018-03-03T12:26:32.460Z,-1.20
2018-03-03T12:27:35.025Z,-1.20
2018-03-03T12:28:37.556Z,-1.20
2018-03-03T12:29:40.890Z,-1.10
2018-03-03T12:30:43.424Z,-1.10
2018-03-03T12:31:46.789Z,-1.10
2018-03-03T12:32:49.324Z,-1.10
2018-03-03T12:33:51.861Z,-1.00
2018-03-03T12:34:54.394Z,-1.00
2018-03-03T12:35:57.697Z,-0.80
2018-03-03T12:37:00.272Z,-0.80
2018-03-03T12:38:02.801Z,-0.70
2018-03-03T12:39:05.345Z,-0.70
2018-03-03T12:40:07.881Z,-0.60
2018-03-03T12:41:10.410Z,-0.60
2018-03-03T12:42:12.993Z,-0.60
2018-03-03T12:43:15.530Z,-0.50
2018-03-03T12:44:18.056Z,-0.40
2018-03-03T12:45:20.584Z,-0.40
2018-03-03T12:46:23.881Z,-0.10
2018-03-03T12:47:26.440Z,-0.10
2018-03-03T12:48:29.738Z,-0.10
2018-03-03T12:49:32.266Z,-0.20
2018-03-03T12:50:35.577Z,-0.30
2018-03-03T12:51:38.114Z,-0.30
2018-03-03T12:52:41.463Z,-0.20
2018-03-03T12:53:44.001Z,-0.20
2018-03-03T12:54:46.545Z,-0.20
2018-03-03T12:55:49.863Z,-0.20
2018-03-03T12:56:52.436Z,-0.20
2018-03-03T12:57:54.974Z,-0.20
2018-03-03T12:58:57.522Z,-0.20
2018-03-03T13:00:00.867Z,-0.10
2018-03-03T13:01:03.397Z,-0.10
2018-03-03T13:02:05.934Z,0.00
2018-03-03T13:03:08.458Z,0.10
2018-03-03T13:04:11.001Z,0.30
2018-03-03T13:05:13.574Z,0.50
2018-03-03T13:06:16.104Z,0.30
2018-03-03T13:07:19.401Z,0.20
2018-03-03T13:08:22.697Z,0.30
2018-03-03T13:09:25.241Z,0.30
2018-03-03T13:10:28.570Z,0.40
2018-03-03T13:11:31.098Z,0.30
2018-03-03T13:12:34.397Z,0.60
2018-03-03T13:13:36.929Z,0.60
2018-03-03T13:14:39.456Z,0.60
2018-03-03T13:15:42.032Z,0.50
2018-03-03T13:16:44.567Z,0.50
2018-03-03T13:17:47.102Z,0.40
2018-03-03T13:18:50.392Z,0.40
2018-03-03T13:19:53.682Z,0.50
2018-03-03T13:20:57.033Z,0.70
2018-03-03T13:21:59.615Z,0.70
2018-03-03T13:24:11.048Z,0.80
2018-03-03T13:25:13.577Z,1.00
2018-03-03T13:26:16.916Z,1.60
2018-03-03T13:27:19.445Z,1.60
2018-03-03T13:28:22.737Z,1.50
2018-03-03T13:29:25.285Z,1.50
2018-03-03T13:30:28.619Z,1.80
2018-03-03T13:31:31.140Z,1.70
2018-03-03T13:32:33.736Z,2.00
2018-03-03T13:33:36.265Z,2.00
2018-03-03T13:34:39.567Z,2.10
2018-03-03T13:35:42.104Z,2.10
2018-03-03T13:36:45.405Z,2.40
2018-03-03T13:37:47.972Z,2.40
2018-03-03T13:38:51.302Z,2.50
2018-03-03T13:39:53.881Z,2.50
2018-03-03T13:40:56.440Z,2.50
2018-03-03T13:41:58.970Z,2.20
2018-03-03T13:43:01.513Z,2.10
2018-03-03T13:44:04.806Z,1.60
2018-03-03T13:45:07.337Z,1.60
2018-03-03T13:46:09.896Z,1.50
2018-03-03T13:47:12.421Z,1.20
2018-03-03T13:48:14.951Z,1.00
2018-03-03T13:49:17.496Z,0.90
2018-03-03T13:50:20.994Z,0.70
2018-03-03T13:51:23.520Z,0.70